EBBT weather

Brasschaat Airfield
Brasschaat, Antwerp, Belgium

Public forecast

Using degrees Celsius for public forecast. Weather courtesy of forecast.io.

METAR (pilot weather report)

Closest report is Woensdrecht Air Base, 8.8 nm (16.3 km) NW. Retrieved 2019/04/21 03:25 UTC (23 minutes ago):

EHWO 210325Z AUTO 06007KT 020V080 9999 NCD 07/02 Q1023 BLU

TAF (pilot weather forecast)

Forecast is more than 12 hours old.

Closest forecast is Woensdrecht Air Base, 8.8 nm (16.3 km) NW. Retrieved 2019/04/19 09:06 UTC (2 days ago):

TAF EHWO 190857Z 1909/1921 08008KT CAVOK TEMPO 1911/1914 0800717KT